sensor_id;sensor_type;location;lat;lon;timestamp;P1;durP1;ratioP1;P2;durP2;ratioP2
21800;SDS011;11062;51.164;16.924;2022-08-19T00:02:21;10.52;;;8.32;;
21800;SDS011;11062;51.164;16.924;2022-08-19T00:04:53;16.15;;;8.60;;
21800;SDS011;11062;51.164;16.924;2022-08-19T00:07:19;14.55;;;7.97;;
21800;SDS011;11062;51.164;16.924;2022-08-19T00:09:46;12.88;;;8.88;;
21800;SDS011;11062;51.164;16.924;2022-08-19T00:12:12;11.73;;;8.43;;
21800;SDS011;11062;51.164;16.924;2022-08-19T00:14:39;13.25;;;8.48;;
21800;SDS011;11062;51.164;16.924;2022-08-19T19:43:43;69.13;;;16.90;;
21800;SDS011;11062;51.164;16.924;2022-08-19T19:46:09;32.05;;;13.75;;
21800;SDS011;11062;51.164;16.924;2022-08-19T19:48:35;26.38;;;14.13;;
21800;SDS011;11062;51.164;16.924;2022-08-19T19:51:04;23.80;;;13.65;;
21800;SDS011;11062;51.164;16.924;2022-08-19T19:53:30;24.48;;;13.85;;
21800;SDS011;11062;51.164;16.924;2022-08-19T19:55:57;26.45;;;14.32;;
21800;SDS011;11062;51.164;16.924;2022-08-19T19:58:27;29.20;;;14.68;;
21800;SDS011;11062;51.164;16.924;2022-08-19T20:01:01;32.47;;;15.70;;
21800;SDS011;11062;51.164;16.924;2022-08-19T20:03:38;25.45;;;13.60;;
21800;SDS011;11062;51.164;16.924;2022-08-19T20:06:06;27.90;;;14.45;;
21800;SDS011;11062;51.164;16.924;2022-08-19T20:08:33;20.65;;;13.43;;
21800;SDS011;11062;51.164;16.924;2022-08-19T20:13:56;22.83;;;15.65;;
21800;SDS011;11062;51.164;16.924;2022-08-19T20:16:27;33.15;;;15.07;;
21800;SDS011;11062;51.164;16.924;2022-08-19T20:18:55;30.20;;;15.38;;
21800;SDS011;11062;51.164;16.924;2022-08-19T20:21:27;24.77;;;14.32;;
21800;SDS011;11062;51.164;16.924;2022-08-19T20:24:02;25.20;;;15.07;;
21800;SDS011;11062;51.164;16.924;2022-08-19T20:26:29;30.38;;;15.50;;
21800;SDS011;11062;51.164;16.924;2022-08-19T20:28:56;28.27;;;15.23;;
21800;SDS011;11062;51.164;16.924;2022-08-19T20:31:26;24.08;;;15.43;;
21800;SDS011;11062;51.164;16.924;2022-08-19T20:33:53;24.05;;;14.77;;
21800;SDS011;11062;51.164;16.924;2022-08-19T20:36:22;16.67;;;14.32;;
21800;SDS011;11062;51.164;16.924;2022-08-19T20:38:48;19.60;;;14.75;;
21800;SDS011;11062;51.164;16.924;2022-08-19T20:41:18;19.00;;;14.73;;
21800;SDS011;11062;51.164;16.924;2022-08-19T20:43:45;18.90;;;14.65;;
21800;SDS011;11062;51.164;16.924;2022-08-19T20:46:14;16.88;;;14.70;;
21800;SDS011;11062;51.164;16.924;2022-08-19T20:48:40;26.80;;;14.90;;
21800;SDS011;11062;51.164;16.924;2022-08-19T20:51:09;17.67;;;14.93;;
21800;SDS011;11062;51.164;16.924;2022-08-19T20:53:35;18.52;;;14.57;;
21800;SDS011;11062;51.164;16.924;2022-08-19T20:56:03;24.30;;;15.38;;
21800;SDS011;11062;51.164;16.924;2022-08-19T20:58:31;20.55;;;15.20;;
21800;SDS011;11062;51.164;16.924;2022-08-19T21:00:58;17.98;;;14.43;;
21800;SDS011;11062;51.164;16.924;2022-08-19T21:03:27;28.30;;;14.55;;
21800;SDS011;11062;51.164;16.924;2022-08-19T21:06:01;18.95;;;13.45;;
21800;SDS011;11062;51.164;16.924;2022-08-19T21:08:28;17.50;;;14.60;;
21800;SDS011;11062;51.164;16.924;2022-08-19T21:18:03;19.75;;;15.90;;
21800;SDS011;11062;51.164;16.924;2022-08-19T21:20:29;19.17;;;14.80;;
21800;SDS011;11062;51.164;16.924;2022-08-19T21:22:55;20.45;;;13.70;;
21800;SDS011;11062;51.164;16.924;2022-08-19T21:25:24;19.38;;;14.50;;
21800;SDS011;11062;51.164;16.924;2022-08-19T21:27:54;19.05;;;14.07;;
21800;SDS011;11062;51.164;16.924;2022-08-19T21:30:30;19.40;;;15.30;;
21800;SDS011;11062;51.164;16.924;2022-08-19T21:32:58;18.58;;;14.27;;
21800;SDS011;11062;51.164;16.924;2022-08-19T21:35:25;17.55;;;13.07;;
21800;SDS011;11062;51.164;16.924;2022-08-19T21:37:51;27.60;;;13.88;;
21800;SDS011;11062;51.164;16.924;2022-08-19T21:40:17;17.35;;;13.90;;
21800;SDS011;11062;51.164;16.924;2022-08-19T21:42:46;19.45;;;13.70;;
21800;SDS011;11062;51.164;16.924;2022-08-19T21:45:15;19.90;;;13.52;;
21800;SDS011;11062;51.164;16.924;2022-08-19T21:47:42;17.75;;;12.60;;
21800;SDS011;11062;51.164;16.924;2022-08-19T21:50:08;19.30;;;13.02;;
21800;SDS011;11062;51.164;16.924;2022-08-19T21:52:35;20.15;;;13.07;;
21800;SDS011;11062;51.164;16.924;2022-08-19T21:55:02;18.42;;;13.30;;
21800;SDS011;11062;51.164;16.924;2022-08-19T21:57:29;18.13;;;12.65;;
21800;SDS011;11062;51.164;16.924;2022-08-19T21:59:55;21.50;;;13.32;;
21800;SDS011;11062;51.164;16.924;2022-08-19T22:02:21;20.95;;;13.73;;
21800;SDS011;11062;51.164;16.924;2022-08-19T22:04:51;17.73;;;13.27;;
21800;SDS011;11062;51.164;16.924;2022-08-19T22:07:18;15.27;;;13.38;;
21800;SDS011;11062;51.164;16.924;2022-08-19T22:09:45;16.20;;;12.45;;
21800;SDS011;11062;51.164;16.924;2022-08-19T22:12:26;20.33;;;13.52;;
21800;SDS011;11062;51.164;16.924;2022-08-19T22:14:56;13.45;;;11.30;;
21800;SDS011;11062;51.164;16.924;2022-08-19T22:17:24;18.27;;;11.68;;
21800;SDS011;11062;51.164;16.924;2022-08-19T22:19:51;14.50;;;11.98;;
21800;SDS011;11062;51.164;16.924;2022-08-19T22:22:25;17.52;;;12.93;;
21800;SDS011;11062;51.164;16.924;2022-08-19T22:24:53;21.27;;;12.85;;
21800;SDS011;11062;51.164;16.924;2022-08-19T22:27:36;18.85;;;12.10;;
21800;SDS011;11062;51.164;16.924;2022-08-19T22:30:06;13.85;;;11.43;;
21800;SDS011;11062;51.164;16.924;2022-08-19T22:32:34;13.35;;;10.25;;
21800;SDS011;11062;51.164;16.924;2022-08-19T22:35:00;16.90;;;10.50;;
21800;SDS011;11062;51.164;16.924;2022-08-19T22:37:27;17.30;;;10.27;;
21800;SDS011;11062;51.164;16.924;2022-08-19T22:39:55;13.93;;;8.95;;
21800;SDS011;11062;51.164;16.924;2022-08-19T22:42:24;15.38;;;10.25;;
21800;SDS011;11062;51.164;16.924;2022-08-19T22:44:50;15.73;;;10.95;;
21800;SDS011;11062;51.164;16.924;2022-08-19T22:47:16;13.90;;;10.00;;
21800;SDS011;11062;51.164;16.924;2022-08-19T22:49:42;13.10;;;9.65;;
21800;SDS011;11062;51.164;16.924;2022-08-19T22:52:09;15.38;;;10.43;;
21800;SDS011;11062;51.164;16.924;2022-08-19T22:54:45;14.55;;;10.40;;
21800;SDS011;11062;51.164;16.924;2022-08-19T22:57:12;13.57;;;9.55;;
21800;SDS011;11062;51.164;16.924;2022-08-19T22:59:39;14.43;;;10.30;;
21800;SDS011;11062;51.164;16.924;2022-08-19T23:02:06;18.65;;;9.38;;
21800;SDS011;11062;51.164;16.924;2022-08-19T23:04:35;17.50;;;9.70;;
21800;SDS011;11062;51.164;16.924;2022-08-19T23:07:03;10.65;;;7.68;;
21800;SDS011;11062;51.164;16.924;2022-08-19T23:09:29;12.60;;;8.32;;
21800;SDS011;11062;51.164;16.924;2022-08-19T23:11:58;14.18;;;8.88;;
21800;SDS011;11062;51.164;16.924;2022-08-19T23:14:24;13.95;;;8.32;;
21800;SDS011;11062;51.164;16.924;2022-08-19T23:16:50;14.55;;;7.90;;
21800;SDS011;11062;51.164;16.924;2022-08-19T23:19:17;14.88;;;8.18;;
21800;SDS011;11062;51.164;16.924;2022-08-19T23:21:43;11.43;;;7.45;;
21800;SDS011;11062;51.164;16.924;2022-08-19T23:24:11;12.15;;;8.00;;
21800;SDS011;11062;51.164;16.924;2022-08-19T23:26:37;14.15;;;8.25;;
21800;SDS011;11062;51.164;16.924;2022-08-19T23:29:24;14.82;;;8.70;;
21800;SDS011;11062;51.164;16.924;2022-08-19T23:32:08;12.88;;;7.88;;
21800;SDS011;11062;51.164;16.924;2022-08-19T23:34:34;12.60;;;8.13;;
21800;SDS011;11062;51.164;16.924;2022-08-19T23:37:02;18.00;;;8.57;;
21800;SDS011;11062;51.164;16.924;2022-08-19T23:39:28;15.75;;;8.18;;
21800;SDS011;11062;51.164;16.924;2022-08-19T23:41:57;15.48;;;8.23;;
21800;SDS011;11062;51.164;16.924;2022-08-19T23:44:23;15.10;;;7.93;;
21800;SDS011;11062;51.164;16.924;2022-08-19T23:46:49;12.07;;;7.57;;
21800;SDS011;11062;51.164;16.924;2022-08-19T23:49:15;16.30;;;7.95;;
21800;SDS011;11062;51.164;16.924;2022-08-19T23:51:41;15.65;;;7.95;;
21800;SDS011;11062;51.164;16.924;2022-08-19T23:54:10;14.60;;;8.00;;
21800;SDS011;11062;51.164;16.924;2022-08-19T23:56:36;14.25;;;7.28;;
21800;SDS011;11062;51.164;16.924;2022-08-19T23:59:04;13.13;;;7.03;;
